KCFJ

Details ICAO KCFJ
Name CRAWFORDSVILLE MUNI
Region United States
Timezone America/Indiana/Indianapolis (UTC-5.0)
Plans Departing 2
Arriving 1
Stats Elevation 799 ft / 244 m (AMSL)
Location 39.975629° -86.919864°
Runways 1
Magnetic Variation 4.192° W
Sunrise 2017-12-17 13:05:11 UTC / 2017-12-17 08:05:11 Local
Sunset 2017-12-17 22:25:23 UTC / 2017-12-17 17:25:23 Local
Advertisement - Login to hide

Runways

ID Width Length Bearing (true) Bearing (mag) Surface Threshold Offset Overrun Length
04 75 ft / 23 m 4,501 ft / 1,372 m 42.81° 47.00° Asphalt 0 ft / 0 m 0 ft / 0 m
22 75 ft / 23 m 4,501 ft / 1,372 m 222.82° 227.01° Asphalt 200 ft / 61 m 0 ft / 0 m

Map

Weather


0- 5 10 15 20 25 30 35+ Temperature / ° C

Clouds and Precipitation
Forecast for 2017-12-17 18:00 UTC. Updated 33 minutes ago

Ground ~20,000 ft ~40,000 ft Winds

METAR

KCFJ 171535Z AUTO 20008KT 10SM OVC100 04/M01 A3011 RMK AO2 T00351006

TAF

Not found

Frequencies

Unicom 122.80 MHz CTAF/UNICOM
Approach 119.05 MHz INDIANAPOLIS APP/DEP
Warning: Do not use this data for real-world aviation or navigation. No guarantee of current accuracy is given.